New Market, Tennessee
Current Conditions -  °F | °C
As of 4:55 AM on Saturday 29 Nov 2014 (Local Time) from KMOR Reporting Station
Clear Clear  
Wind Chill: 21°   Ceiling: Unl
Heat Index: 27°   Visibility: 10mi
Dew Point: 21°   Wind: 5mph
Humidity: 80%   Direction: 80°E
Pressure: 30.21"   Gusts: NA
Location:  36.1°N, 83.55°W
Report Text: KMOR 290955Z AUTO 08004KT 10SM CLR M03/M06 A3021 RMK
Loading
Personal Weather Stations






























Interactive Weather Map New forecast layout! Learn more

10-Day Weather Forecast

Advertisements
Track Severe Weather on mobile